sensor_id;sensor_type;location;lat;lon;timestamp;temperature;humidity
46890;DHT22;32625;51.080;16.970;2023-07-16T00:00:47;21.70;99.90
46890;DHT22;32625;51.080;16.970;2023-07-16T00:03:14;21.70;99.90
46890;DHT22;32625;51.080;16.970;2023-07-16T00:05:41;21.70;99.90
46890;DHT22;32625;51.080;16.970;2023-07-16T00:08:08;21.70;99.90
46890;DHT22;32625;51.080;16.970;2023-07-16T00:10:36;21.70;99.90
46890;DHT22;32625;51.080;16.970;2023-07-16T00:13:04;21.70;99.90
46890;DHT22;32625;51.080;16.970;2023-07-16T00:15:32;21.70;99.90
46890;DHT22;32625;51.080;16.970;2023-07-16T00:17:59;21.70;99.90
46890;DHT22;32625;51.080;16.970;2023-07-16T00:20:26;21.70;99.90
46890;DHT22;32625;51.080;16.970;2023-07-16T00:22:54;21.70;99.90
46890;DHT22;32625;51.080;16.970;2023-07-16T00:25:21;21.60;99.90
46890;DHT22;32625;51.080;16.970;2023-07-16T00:27:49;21.60;99.90
46890;DHT22;32625;51.080;16.970;2023-07-16T00:30:16;21.60;99.90
46890;DHT22;32625;51.080;16.970;2023-07-16T00:32:43;21.60;99.90
46890;DHT22;32625;51.080;16.970;2023-07-16T00:35:10;21.50;99.90
46890;DHT22;32625;51.080;16.970;2023-07-16T00:37:37;21.50;99.90
46890;DHT22;32625;51.080;16.970;2023-07-16T00:40:07;21.50;99.90
46890;DHT22;32625;51.080;16.970;2023-07-16T00:42:35;21.50;99.90
46890;DHT22;32625;51.080;16.970;2023-07-16T00:45:08;21.50;99.90
46890;DHT22;32625;51.080;16.970;2023-07-16T00:47:36;21.50;99.90
46890;DHT22;32625;51.080;16.970;2023-07-16T00:50:03;21.50;99.90
46890;DHT22;32625;51.080;16.970;2023-07-16T00:52:31;21.50;99.90
46890;DHT22;32625;51.080;16.970;2023-07-16T00:54:59;21.40;99.90
46890;DHT22;32625;51.080;16.970;2023-07-16T00:57:27;21.40;99.90
46890;DHT22;32625;51.080;16.970;2023-07-16T00:59:54;21.40;99.90
46890;DHT22;32625;51.080;16.970;2023-07-16T01:02:22;21.40;99.90
46890;DHT22;32625;51.080;16.970;2023-07-16T01:04:49;21.40;99.90
46890;DHT22;32625;51.080;16.970;2023-07-16T01:07:18;21.30;99.90
46890;DHT22;32625;51.080;16.970;2023-07-16T01:09:49;21.40;99.90
46890;DHT22;32625;51.080;16.970;2023-07-16T01:12:20;21.30;99.90
46890;DHT22;32625;51.080;16.970;2023-07-16T01:14:49;21.30;99.90
46890;DHT22;32625;51.080;16.970;2023-07-16T01:17:16;21.30;99.90
46890;DHT22;32625;51.080;16.970;2023-07-16T01:19:44;21.30;99.90
46890;DHT22;32625;51.080;16.970;2023-07-16T01:28:05;21.30;99.90
46890;DHT22;32625;51.080;16.970;2023-07-16T01:30:33;21.30;99.90
46890;DHT22;32625;51.080;16.970;2023-07-16T01:33:02;21.30;99.90
46890;DHT22;32625;51.080;16.970;2023-07-16T01:35:31;21.30;99.90
46890;DHT22;32625;51.080;16.970;2023-07-16T01:37:58;21.30;99.90
46890;DHT22;32625;51.080;16.970;2023-07-16T01:40:25;21.30;99.90
46890;DHT22;32625;51.080;16.970;2023-07-16T01:42:53;21.30;99.90
46890;DHT22;32625;51.080;16.970;2023-07-16T01:45:20;21.30;99.90
46890;DHT22;32625;51.080;16.970;2023-07-16T01:50:34;21.30;99.90
46890;DHT22;32625;51.080;16.970;2023-07-16T01:53:02;21.30;99.90
46890;DHT22;32625;51.080;16.970;2023-07-16T01:55:29;21.30;99.90
46890;DHT22;32625;51.080;16.970;2023-07-16T01:57:56;21.30;99.90
46890;DHT22;32625;51.080;16.970;2023-07-16T02:00:23;21.30;99.90
46890;DHT22;32625;51.080;16.970;2023-07-16T02:02:51;21.30;99.90
46890;DHT22;32625;51.080;16.970;2023-07-16T02:05:18;21.30;99.90
46890;DHT22;32625;51.080;16.970;2023-07-16T02:07:46;21.30;99.90
46890;DHT22;32625;51.080;16.970;2023-07-16T02:10:14;21.30;99.90
46890;DHT22;32625;51.080;16.970;2023-07-16T02:12:41;21.20;99.90
46890;DHT22;32625;51.080;16.970;2023-07-16T02:15:08;21.20;99.90
46890;DHT22;32625;51.080;16.970;2023-07-16T02:17:36;21.10;99.90
46890;DHT22;32625;51.080;16.970;2023-07-16T02:20:04;21.10;99.90
46890;DHT22;32625;51.080;16.970;2023-07-16T02:22:35;21.10;99.90
46890;DHT22;32625;51.080;16.970;2023-07-16T02:25:03;21.10;99.90
46890;DHT22;32625;51.080;16.970;2023-07-16T02:27:30;21.00;99.90
46890;DHT22;32625;51.080;16.970;2023-07-16T02:29:57;21.00;99.90
46890;DHT22;32625;51.080;16.970;2023-07-16T02:32:24;21.00;99.90
46890;DHT22;32625;51.080;16.970;2023-07-16T02:34:52;20.90;99.90
46890;DHT22;32625;51.080;16.970;2023-07-16T02:37:19;20.90;99.90
46890;DHT22;32625;51.080;16.970;2023-07-16T02:39:46;20.90;99.90
46890;DHT22;32625;51.080;16.970;2023-07-16T02:42:15;20.80;99.90
46890;DHT22;32625;51.080;16.970;2023-07-16T02:44:43;20.80;99.90
46890;DHT22;32625;51.080;16.970;2023-07-16T02:47:12;20.70;99.90
46890;DHT22;32625;51.080;16.970;2023-07-16T02:49:39;20.80;99.90
46890;DHT22;32625;51.080;16.970;2023-07-16T02:52:07;20.70;99.90
46890;DHT22;32625;51.080;16.970;2023-07-16T02:54:37;20.70;99.90
46890;DHT22;32625;51.080;16.970;2023-07-16T02:57:05;20.70;99.90
46890;DHT22;32625;51.080;16.970;2023-07-16T02:59:32;20.70;99.90
46890;DHT22;32625;51.080;16.970;2023-07-16T03:02:00;20.70;99.90
46890;DHT22;32625;51.080;16.970;2023-07-16T03:04:28;20.70;99.90
46890;DHT22;32625;51.080;16.970;2023-07-16T03:06:55;20.70;99.90
46890;DHT22;32625;51.080;16.970;2023-07-16T03:09:22;20.80;99.90
46890;DHT22;32625;51.080;16.970;2023-07-16T03:11:49;20.80;99.90
46890;DHT22;32625;51.080;16.970;2023-07-16T03:14:18;20.80;99.90
46890;DHT22;32625;51.080;16.970;2023-07-16T03:16:45;20.80;99.90
46890;DHT22;32625;51.080;16.970;2023-07-16T03:19:12;20.80;99.90
46890;DHT22;32625;51.080;16.970;2023-07-16T03:21:39;20.80;99.90
46890;DHT22;32625;51.080;16.970;2023-07-16T03:24:07;20.80;99.90
46890;DHT22;32625;51.080;16.970;2023-07-16T03:26:35;20.80;99.90
46890;DHT22;32625;51.080;16.970;2023-07-16T03:29:02;20.80;99.90
46890;DHT22;32625;51.080;16.970;2023-07-16T03:31:30;20.80;99.90
46890;DHT22;32625;51.080;16.970;2023-07-16T03:33:58;20.80;99.90
46890;DHT22;32625;51.080;16.970;2023-07-16T03:36:28;20.90;99.90
46890;DHT22;32625;51.080;16.970;2023-07-16T03:38:56;20.90;99.90
46890;DHT22;32625;51.080;16.970;2023-07-16T03:41:23;21.00;99.90
46890;DHT22;32625;51.080;16.970;2023-07-16T03:43:51;21.00;99.90
46890;DHT22;32625;51.080;16.970;2023-07-16T03:46:20;21.00;99.90
46890;DHT22;32625;51.080;16.970;2023-07-16T03:48:48;21.00;99.90
46890;DHT22;32625;51.080;16.970;2023-07-16T03:51:15;21.00;99.90
46890;DHT22;32625;51.080;16.970;2023-07-16T03:53:44;21.10;99.90
46890;DHT22;32625;51.080;16.970;2023-07-16T03:56:11;21.10;99.90
46890;DHT22;32625;51.080;16.970;2023-07-16T03:58:39;21.10;99.90
46890;DHT22;32625;51.080;16.970;2023-07-16T04:01:08;21.10;99.90
46890;DHT22;32625;51.080;16.970;2023-07-16T04:03:37;21.20;99.90
46890;DHT22;32625;51.080;16.970;2023-07-16T04:06:07;21.30;99.90
46890;DHT22;32625;51.080;16.970;2023-07-16T04:08:39;21.40;99.90
46890;DHT22;32625;51.080;16.970;2023-07-16T04:11:10;21.50;99.90
46890;DHT22;32625;51.080;16.970;2023-07-16T04:13:39;21.50;99.90
46890;DHT22;32625;51.080;16.970;2023-07-16T04:16:07;21.60;99.90
46890;DHT22;32625;51.080;16.970;2023-07-16T04:18:36;21.70;99.90
46890;DHT22;32625;51.080;16.970;2023-07-16T04:21:04;21.70;99.90
46890;DHT22;32625;51.080;16.970;2023-07-16T04:23:32;21.80;99.90
46890;DHT22;32625;51.080;16.970;2023-07-16T04:26:00;21.80;99.90
46890;DHT22;32625;51.080;16.970;2023-07-16T04:28:28;21.90;99.90
46890;DHT22;32625;51.080;16.970;2023-07-16T04:30:56;22.00;99.90
46890;DHT22;32625;51.080;16.970;2023-07-16T04:33:25;22.00;99.90
46890;DHT22;32625;51.080;16.970;2023-07-16T04:35:56;22.00;99.90
46890;DHT22;32625;51.080;16.970;2023-07-16T04:38:25;22.10;99.90
46890;DHT22;32625;51.080;16.970;2023-07-16T04:40:54;22.10;99.90
46890;DHT22;32625;51.080;16.970;2023-07-16T04:43:26;22.10;99.90
46890;DHT22;32625;51.080;16.970;2023-07-16T04:45:54;22.20;99.90
46890;DHT22;32625;51.080;16.970;2023-07-16T04:48:22;22.20;99.90
46890;DHT22;32625;51.080;16.970;2023-07-16T04:50:51;22.30;99.90
46890;DHT22;32625;51.080;16.970;2023-07-16T04:53:19;22.30;99.90
46890;DHT22;32625;51.080;16.970;2023-07-16T04:55:46;22.30;99.90
46890;DHT22;32625;51.080;16.970;2023-07-16T04:58:14;22.30;99.90
46890;DHT22;32625;51.080;16.970;2023-07-16T05:00:42;22.30;99.90
46890;DHT22;32625;51.080;16.970;2023-07-16T05:03:09;22.40;99.90
46890;DHT22;32625;51.080;16.970;2023-07-16T05:05:37;22.50;99.90
46890;DHT22;32625;51.080;16.970;2023-07-16T05:08:04;22.60;99.90
46890;DHT22;32625;51.080;16.970;2023-07-16T05:10:32;22.60;99.90
46890;DHT22;32625;51.080;16.970;2023-07-16T05:12:59;22.80;99.90
46890;DHT22;32625;51.080;16.970;2023-07-16T05:15:26;22.80;99.90
46890;DHT22;32625;51.080;16.970;2023-07-16T05:17:54;22.90;99.90
46890;DHT22;32625;51.080;16.970;2023-07-16T05:20:21;22.90;99.90
46890;DHT22;32625;51.080;16.970;2023-07-16T05:22:48;23.00;99.90
46890;DHT22;32625;51.080;16.970;2023-07-16T05:25:16;23.00;99.90
46890;DHT22;32625;51.080;16.970;2023-07-16T05:27:43;23.20;99.90
46890;DHT22;32625;51.080;16.970;2023-07-16T05:30:10;23.30;99.90
46890;DHT22;32625;51.080;16.970;2023-07-16T05:32:38;23.40;99.90
46890;DHT22;32625;51.080;16.970;2023-07-16T05:35:05;23.50;99.90
46890;DHT22;32625;51.080;16.970;2023-07-16T05:37:33;23.60;99.90
46890;DHT22;32625;51.080;16.970;2023-07-16T05:40:00;23.60;99.90
46890;DHT22;32625;51.080;16.970;2023-07-16T05:42:27;23.60;99.90
46890;DHT22;32625;51.080;16.970;2023-07-16T05:44:55;23.80;99.90
46890;DHT22;32625;51.080;16.970;2023-07-16T05:47:22;23.70;99.90
46890;DHT22;32625;51.080;16.970;2023-07-16T05:49:49;23.70;99.90
46890;DHT22;32625;51.080;16.970;2023-07-16T05:52:17;23.70;99.90
46890;DHT22;32625;51.080;16.970;2023-07-16T05:54:44;23.70;99.90
46890;DHT22;32625;51.080;16.970;2023-07-16T05:57:14;23.80;99.90
46890;DHT22;32625;51.080;16.970;2023-07-16T05:59:41;23.90;99.90
46890;DHT22;32625;51.080;16.970;2023-07-16T06:02:09;23.90;99.90
46890;DHT22;32625;51.080;16.970;2023-07-16T06:04:36;23.90;99.90
46890;DHT22;32625;51.080;16.970;2023-07-16T06:07:03;23.80;99.90
46890;DHT22;32625;51.080;16.970;2023-07-16T06:09:30;23.80;99.90
46890;DHT22;32625;51.080;16.970;2023-07-16T06:11:58;23.80;99.90
46890;DHT22;32625;51.080;16.970;2023-07-16T06:14:25;23.80;99.90
46890;DHT22;32625;51.080;16.970;2023-07-16T06:16:52;23.80;99.90
46890;DHT22;32625;51.080;16.970;2023-07-16T06:19:20;23.90;99.90
46890;DHT22;32625;51.080;16.970;2023-07-16T06:21:47;24.10;99.90
46890;DHT22;32625;51.080;16.970;2023-07-16T06:24:14;24.10;99.90
46890;DHT22;32625;51.080;16.970;2023-07-16T06:26:43;24.10;99.90
46890;DHT22;32625;51.080;16.970;2023-07-16T06:29:10;24.10;99.90
46890;DHT22;32625;51.080;16.970;2023-07-16T06:31:37;24.10;99.90
46890;DHT22;32625;51.080;16.970;2023-07-16T06:34:05;24.10;99.90
46890;DHT22;32625;51.080;16.970;2023-07-16T06:36:32;24.10;99.90
46890;DHT22;32625;51.080;16.970;2023-07-16T06:38:59;24.20;99.90
46890;DHT22;32625;51.080;16.970;2023-07-16T06:41:27;24.20;99.90
46890;DHT22;32625;51.080;16.970;2023-07-16T06:43:55;24.20;99.90
46890;DHT22;32625;51.080;16.970;2023-07-16T06:46:22;24.30;99.90
46890;DHT22;32625;51.080;16.970;2023-07-16T06:48:50;24.40;99.90
46890;DHT22;32625;51.080;16.970;2023-07-16T06:51:17;24.30;99.90
46890;DHT22;32625;51.080;16.970;2023-07-16T06:53:48;24.30;99.90
46890;DHT22;32625;51.080;16.970;2023-07-16T06:56:16;24.30;99.90
46890;DHT22;32625;51.080;16.970;2023-07-16T06:58:43;24.30;99.60
46890;DHT22;32625;51.080;16.970;2023-07-16T07:01:10;24.30;99.30
46890;DHT22;32625;51.080;16.970;2023-07-16T07:03:37;24.30;99.50
46890;DHT22;32625;51.080;16.970;2023-07-16T07:06:05;24.30;98.80
46890;DHT22;32625;51.080;16.970;2023-07-16T07:08:32;24.40;98.60
46890;DHT22;32625;51.080;16.970;2023-07-16T07:11:00;24.40;98.40
46890;DHT22;32625;51.080;16.970;2023-07-16T07:13:27;24.40;98.90
46890;DHT22;32625;51.080;16.970;2023-07-16T07:15:56;24.40;98.70
46890;DHT22;32625;51.080;16.970;2023-07-16T07:18:24;24.40;98.70
46890;DHT22;32625;51.080;16.970;2023-07-16T07:20:51;24.40;98.60
46890;DHT22;32625;51.080;16.970;2023-07-16T07:23:18;24.50;98.70
46890;DHT22;32625;51.080;16.970;2023-07-16T07:25:49;24.50;98.60
46890;DHT22;32625;51.080;16.970;2023-07-16T07:28:19;24.60;97.90
46890;DHT22;32625;51.080;16.970;2023-07-16T07:30:47;24.60;98.20
46890;DHT22;32625;51.080;16.970;2023-07-16T07:33:14;24.60;98.10
46890;DHT22;32625;51.080;16.970;2023-07-16T07:35:42;24.70;98.10
46890;DHT22;32625;51.080;16.970;2023-07-16T07:38:09;24.60;98.10
46890;DHT22;32625;51.080;16.970;2023-07-16T07:40:36;24.60;98.40
46890;DHT22;32625;51.080;16.970;2023-07-16T07:43:04;24.60;98.00
46890;DHT22;32625;51.080;16.970;2023-07-16T07:45:31;24.60;98.10
46890;DHT22;32625;51.080;16.970;2023-07-16T07:47:58;24.60;98.00
46890;DHT22;32625;51.080;16.970;2023-07-16T07:50:25;24.60;98.20
46890;DHT22;32625;51.080;16.970;2023-07-16T07:52:53;24.70;97.80
46890;DHT22;32625;51.080;16.970;2023-07-16T07:55:20;24.90;97.70
46890;DHT22;32625;51.080;16.970;2023-07-16T07:57:47;25.10;96.80
46890;DHT22;32625;51.080;16.970;2023-07-16T08:00:14;25.20;96.80
46890;DHT22;32625;51.080;16.970;2023-07-16T08:02:41;25.30;96.20
46890;DHT22;32625;51.080;16.970;2023-07-16T08:05:09;25.30;96.20
46890;DHT22;32625;51.080;16.970;2023-07-16T08:07:36;25.30;95.50
46890;DHT22;32625;51.080;16.970;2023-07-16T08:10:04;25.30;95.20
46890;DHT22;32625;51.080;16.970;2023-07-16T08:12:31;25.30;95.30
46890;DHT22;32625;51.080;16.970;2023-07-16T08:14:58;25.50;95.50
46890;DHT22;32625;51.080;16.970;2023-07-16T08:17:26;25.50;95.00
46890;DHT22;32625;51.080;16.970;2023-07-16T08:19:53;25.40;94.60
46890;DHT22;32625;51.080;16.970;2023-07-16T08:22:21;25.40;94.80
46890;DHT22;32625;51.080;16.970;2023-07-16T08:24:50;25.40;94.90
46890;DHT22;32625;51.080;16.970;2023-07-16T08:27:18;25.40;94.70
46890;DHT22;32625;51.080;16.970;2023-07-16T08:29:46;25.50;94.70
46890;DHT22;32625;51.080;16.970;2023-07-16T08:32:13;25.50;94.00
46890;DHT22;32625;51.080;16.970;2023-07-16T08:34:41;25.60;93.80
46890;DHT22;32625;51.080;16.970;2023-07-16T08:37:08;25.60;92.90
46890;DHT22;32625;51.080;16.970;2023-07-16T08:39:35;25.60;93.30
46890;DHT22;32625;51.080;16.970;2023-07-16T08:42:03;25.60;92.60
46890;DHT22;32625;51.080;16.970;2023-07-16T08:44:31;25.50;93.60
46890;DHT22;32625;51.080;16.970;2023-07-16T08:46:58;25.50;93.80
46890;DHT22;32625;51.080;16.970;2023-07-16T08:49:30;25.40;94.50
46890;DHT22;32625;51.080;16.970;2023-07-16T08:51:57;25.50;93.00
46890;DHT22;32625;51.080;16.970;2023-07-16T08:54:24;25.40;96.00
46890;DHT22;32625;51.080;16.970;2023-07-16T08:56:53;25.30;96.80
46890;DHT22;32625;51.080;16.970;2023-07-16T08:59:21;25.20;96.50
46890;DHT22;32625;51.080;16.970;2023-07-16T09:01:48;25.10;97.60
46890;DHT22;32625;51.080;16.970;2023-07-16T09:04:16;25.00;98.60
46890;DHT22;32625;51.080;16.970;2023-07-16T09:06:44;24.90;99.90
46890;DHT22;32625;51.080;16.970;2023-07-16T09:09:24;24.80;99.90
46890;DHT22;32625;51.080;16.970;2023-07-16T09:11:51;24.60;99.90
46890;DHT22;32625;51.080;16.970;2023-07-16T09:14:19;24.60;99.90
46890;DHT22;32625;51.080;16.970;2023-07-16T09:16:50;24.50;99.90
46890;DHT22;32625;51.080;16.970;2023-07-16T09:19:18;24.40;99.90
46890;DHT22;32625;51.080;16.970;2023-07-16T09:21:49;24.30;99.90
46890;DHT22;32625;51.080;16.970;2023-07-16T09:24:17;24.40;99.90
46890;DHT22;32625;51.080;16.970;2023-07-16T09:26:51;24.50;99.90
46890;DHT22;32625;51.080;16.970;2023-07-16T09:29:20;24.60;99.90
46890;DHT22;32625;51.080;16.970;2023-07-16T09:32:00;24.70;99.90
46890;DHT22;32625;51.080;16.970;2023-07-16T09:34:32;24.80;99.90
46890;DHT22;32625;51.080;16.970;2023-07-16T09:37:00;24.80;99.90
46890;DHT22;32625;51.080;16.970;2023-07-16T09:39:28;24.90;99.90
46890;DHT22;32625;51.080;16.970;2023-07-16T09:41:55;24.90;99.90
46890;DHT22;32625;51.080;16.970;2023-07-16T09:44:24;25.20;99.90
46890;DHT22;32625;51.080;16.970;2023-07-16T09:46:51;25.30;99.90
46890;DHT22;32625;51.080;16.970;2023-07-16T09:49:18;25.40;99.90
46890;DHT22;32625;51.080;16.970;2023-07-16T09:51:48;25.40;99.90
46890;DHT22;32625;51.080;16.970;2023-07-16T09:54:16;25.40;99.90
46890;DHT22;32625;51.080;16.970;2023-07-16T09:56:49;25.30;99.90
46890;DHT22;32625;51.080;16.970;2023-07-16T09:59:22;25.30;99.90
46890;DHT22;32625;51.080;16.970;2023-07-16T10:01:50;25.20;99.90
46890;DHT22;32625;51.080;16.970;2023-07-16T10:04:19;25.20;99.90
46890;DHT22;32625;51.080;16.970;2023-07-16T10:06:58;25.20;99.90
46890;DHT22;32625;51.080;16.970;2023-07-16T10:09:55;25.20;99.90
46890;DHT22;32625;51.080;16.970;2023-07-16T10:12:25;25.10;99.90
46890;DHT22;32625;51.080;16.970;2023-07-16T10:14:56;25.10;99.90
46890;DHT22;32625;51.080;16.970;2023-07-16T10:17:30;25.00;99.90
46890;DHT22;32625;51.080;16.970;2023-07-16T10:20:06;25.00;99.90
46890;DHT22;32625;51.080;16.970;2023-07-16T10:22:42;25.00;99.90
46890;DHT22;32625;51.080;16.970;2023-07-16T10:27:47;25.00;99.90
46890;DHT22;32625;51.080;16.970;2023-07-16T10:30:15;25.00;99.90
46890;DHT22;32625;51.080;16.970;2023-07-16T10:32:43;25.00;99.90
46890;DHT22;32625;51.080;16.970;2023-07-16T10:35:11;24.90;99.90
46890;DHT22;32625;51.080;16.970;2023-07-16T10:37:39;24.80;99.90
46890;DHT22;32625;51.080;16.970;2023-07-16T10:40:11;24.80;99.90
46890;DHT22;32625;51.080;16.970;2023-07-16T10:42:41;24.70;99.90
46890;DHT22;32625;51.080;16.970;2023-07-16T10:45:10;24.60;99.90
46890;DHT22;32625;51.080;16.970;2023-07-16T10:47:39;24.50;99.90
46890;DHT22;32625;51.080;16.970;2023-07-16T10:50:09;24.40;99.90
46890;DHT22;32625;51.080;16.970;2023-07-16T10:52:37;24.40;99.90
46890;DHT22;32625;51.080;16.970;2023-07-16T10:55:07;24.30;99.90
46890;DHT22;32625;51.080;16.970;2023-07-16T10:57:35;24.20;99.90
46890;DHT22;32625;51.080;16.970;2023-07-16T11:00:02;24.20;99.90
46890;DHT22;32625;51.080;16.970;2023-07-16T11:02:31;24.10;99.90
46890;DHT22;32625;51.080;16.970;2023-07-16T11:04:58;24.10;99.90
46890;DHT22;32625;51.080;16.970;2023-07-16T11:07:28;24.00;99.90
46890;DHT22;32625;51.080;16.970;2023-07-16T11:09:55;24.00;99.90
46890;DHT22;32625;51.080;16.970;2023-07-16T11:12:23;24.00;99.90
46890;DHT22;32625;51.080;16.970;2023-07-16T11:14:55;24.00;99.90
46890;DHT22;32625;51.080;16.970;2023-07-16T11:17:24;24.00;99.90
46890;DHT22;32625;51.080;16.970;2023-07-16T11:19:54;24.00;99.90
46890;DHT22;32625;51.080;16.970;2023-07-16T11:22:26;24.10;99.90
46890;DHT22;32625;51.080;16.970;2023-07-16T11:24:54;24.10;99.90
46890;DHT22;32625;51.080;16.970;2023-07-16T11:27:24;24.20;99.90
46890;DHT22;32625;51.080;16.970;2023-07-16T11:29:59;24.20;99.90
46890;DHT22;32625;51.080;16.970;2023-07-16T11:32:43;24.20;99.90
46890;DHT22;32625;51.080;16.970;2023-07-16T11:35:16;24.20;99.90
46890;DHT22;32625;51.080;16.970;2023-07-16T11:37:45;24.20;99.90
46890;DHT22;32625;51.080;16.970;2023-07-16T11:40:19;24.20;99.90
46890;DHT22;32625;51.080;16.970;2023-07-16T11:42:47;24.20;99.90
46890;DHT22;32625;51.080;16.970;2023-07-16T11:45:17;24.20;99.90
46890;DHT22;32625;51.080;16.970;2023-07-16T11:47:45;24.20;99.90
46890;DHT22;32625;51.080;16.970;2023-07-16T11:50:12;24.20;99.90
46890;DHT22;32625;51.080;16.970;2023-07-16T11:52:41;24.20;99.90
46890;DHT22;32625;51.080;16.970;2023-07-16T11:55:08;24.20;99.90
46890;DHT22;32625;51.080;16.970;2023-07-16T11:57:35;24.20;99.90
46890;DHT22;32625;51.080;16.970;2023-07-16T12:00:04;24.20;99.90
46890;DHT22;32625;51.080;16.970;2023-07-16T12:02:31;24.30;99.90
46890;DHT22;32625;51.080;16.970;2023-07-16T12:05:00;24.40;99.90
46890;DHT22;32625;51.080;16.970;2023-07-16T12:09:59;24.50;99.90
46890;DHT22;32625;51.080;16.970;2023-07-16T12:12:26;24.50;99.90
46890;DHT22;32625;51.080;16.970;2023-07-16T12:14:53;24.50;99.90
46890;DHT22;32625;51.080;16.970;2023-07-16T12:17:20;24.50;99.90
46890;DHT22;32625;51.080;16.970;2023-07-16T12:19:48;24.50;99.90
46890;DHT22;32625;51.080;16.970;2023-07-16T12:22:17;24.50;99.90
46890;DHT22;32625;51.080;16.970;2023-07-16T12:24:45;24.50;99.90
46890;DHT22;32625;51.080;16.970;2023-07-16T12:27:14;24.50;99.90
46890;DHT22;32625;51.080;16.970;2023-07-16T12:29:42;24.60;99.90
46890;DHT22;32625;51.080;16.970;2023-07-16T12:32:10;24.60;99.90
46890;DHT22;32625;51.080;16.970;2023-07-16T12:34:37;24.60;99.90
46890;DHT22;32625;51.080;16.970;2023-07-16T12:37:05;24.70;99.90
46890;DHT22;32625;51.080;16.970;2023-07-16T12:39:32;24.70;99.90
46890;DHT22;32625;51.080;16.970;2023-07-16T12:41:59;24.80;99.90
46890;DHT22;32625;51.080;16.970;2023-07-16T12:44:26;24.80;99.90
46890;DHT22;32625;51.080;16.970;2023-07-16T12:46:53;24.80;99.90
46890;DHT22;32625;51.080;16.970;2023-07-16T12:49:21;24.80;99.90
46890;DHT22;32625;51.080;16.970;2023-07-16T12:51:48;24.80;99.90
46890;DHT22;32625;51.080;16.970;2023-07-16T12:54:16;24.70;99.90
46890;DHT22;32625;51.080;16.970;2023-07-16T12:56:43;24.80;99.90
46890;DHT22;32625;51.080;16.970;2023-07-16T12:59:11;24.80;99.90
46890;DHT22;32625;51.080;16.970;2023-07-16T13:01:38;24.80;99.90
46890;DHT22;32625;51.080;16.970;2023-07-16T13:07:34;24.70;99.90
46890;DHT22;32625;51.080;16.970;2023-07-16T13:10:01;24.80;99.90
46890;DHT22;32625;51.080;16.970;2023-07-16T13:12:43;24.80;99.90
46890;DHT22;32625;51.080;16.970;2023-07-16T13:15:10;24.70;99.90
46890;DHT22;32625;51.080;16.970;2023-07-16T13:17:38;24.80;99.90
46890;DHT22;32625;51.080;16.970;2023-07-16T13:20:05;24.90;99.90
46890;DHT22;32625;51.080;16.970;2023-07-16T13:22:35;25.00;99.90
46890;DHT22;32625;51.080;16.970;2023-07-16T13:25:03;25.00;99.90
46890;DHT22;32625;51.080;16.970;2023-07-16T13:27:30;25.10;99.90
46890;DHT22;32625;51.080;16.970;2023-07-16T13:29:58;25.10;99.90
46890;DHT22;32625;51.080;16.970;2023-07-16T13:32:26;25.20;99.90
46890;DHT22;32625;51.080;16.970;2023-07-16T13:34:54;25.30;99.90
46890;DHT22;32625;51.080;16.970;2023-07-16T13:37:21;25.40;99.90
46890;DHT22;32625;51.080;16.970;2023-07-16T13:39:48;25.50;99.90
46890;DHT22;32625;51.080;16.970;2023-07-16T13:42:16;25.40;99.90
46890;DHT22;32625;51.080;16.970;2023-07-16T13:44:49;25.30;99.90
46890;DHT22;32625;51.080;16.970;2023-07-16T13:47:17;25.20;99.90
46890;DHT22;32625;51.080;16.970;2023-07-16T13:49:44;25.20;99.90
46890;DHT22;32625;51.080;16.970;2023-07-16T13:52:11;25.20;99.90
46890;DHT22;32625;51.080;16.970;2023-07-16T13:54:38;25.10;99.90
46890;DHT22;32625;51.080;16.970;2023-07-16T13:57:08;25.10;99.90
46890;DHT22;32625;51.080;16.970;2023-07-16T13:59:36;25.20;99.90
46890;DHT22;32625;51.080;16.970;2023-07-16T14:02:04;25.20;99.90
46890;DHT22;32625;51.080;16.970;2023-07-16T14:04:34;25.20;99.90
46890;DHT22;32625;51.080;16.970;2023-07-16T14:07:04;25.20;99.90
46890;DHT22;32625;51.080;16.970;2023-07-16T14:09:32;25.20;99.90
46890;DHT22;32625;51.080;16.970;2023-07-16T14:11:59;25.10;99.90
46890;DHT22;32625;51.080;16.970;2023-07-16T14:14:26;25.00;99.90
46890;DHT22;32625;51.080;16.970;2023-07-16T14:16:53;25.00;99.90
46890;DHT22;32625;51.080;16.970;2023-07-16T14:19:22;25.00;99.90
46890;DHT22;32625;51.080;16.970;2023-07-16T14:21:49;25.00;99.90
46890;DHT22;32625;51.080;16.970;2023-07-16T14:24:18;25.00;99.90
46890;DHT22;32625;51.080;16.970;2023-07-16T14:26:45;25.00;99.90
46890;DHT22;32625;51.080;16.970;2023-07-16T14:29:13;24.90;99.90
46890;DHT22;32625;51.080;16.970;2023-07-16T14:31:45;24.90;99.90
46890;DHT22;32625;51.080;16.970;2023-07-16T14:34:12;25.00;99.90
46890;DHT22;32625;51.080;16.970;2023-07-16T14:36:41;25.00;99.90
46890;DHT22;32625;51.080;16.970;2023-07-16T14:39:09;25.00;99.90
46890;DHT22;32625;51.080;16.970;2023-07-16T14:41:36;24.90;99.90
46890;DHT22;32625;51.080;16.970;2023-07-16T14:44:05;24.90;99.90
46890;DHT22;32625;51.080;16.970;2023-07-16T14:46:32;24.80;99.90
46890;DHT22;32625;51.080;16.970;2023-07-16T14:48:59;24.80;99.90
46890;DHT22;32625;51.080;16.970;2023-07-16T14:51:27;24.70;99.90
46890;DHT22;32625;51.080;16.970;2023-07-16T14:53:55;24.60;99.90
46890;DHT22;32625;51.080;16.970;2023-07-16T14:56:23;24.60;99.90
46890;DHT22;32625;51.080;16.970;2023-07-16T14:58:50;24.50;99.90
46890;DHT22;32625;51.080;16.970;2023-07-16T15:01:17;24.50;99.90
46890;DHT22;32625;51.080;16.970;2023-07-16T15:03:46;24.50;99.90
46890;DHT22;32625;51.080;16.970;2023-07-16T15:06:13;24.40;99.90
46890;DHT22;32625;51.080;16.970;2023-07-16T15:08:42;24.40;99.90
46890;DHT22;32625;51.080;16.970;2023-07-16T15:11:09;24.40;99.90
46890;DHT22;32625;51.080;16.970;2023-07-16T15:13:36;24.30;99.90
46890;DHT22;32625;51.080;16.970;2023-07-16T15:16:07;24.20;99.90
46890;DHT22;32625;51.080;16.970;2023-07-16T15:18:34;24.20;99.90
46890;DHT22;32625;51.080;16.970;2023-07-16T15:21:02;24.20;99.90
46890;DHT22;32625;51.080;16.970;2023-07-16T15:23:30;24.20;99.90
46890;DHT22;32625;51.080;16.970;2023-07-16T15:26:03;24.20;99.90
46890;DHT22;32625;51.080;16.970;2023-07-16T15:28:32;24.20;99.90
46890;DHT22;32625;51.080;16.970;2023-07-16T15:31:01;24.20;99.90
46890;DHT22;32625;51.080;16.970;2023-07-16T15:33:28;24.30;99.90
46890;DHT22;32625;51.080;16.970;2023-07-16T15:35:59;24.30;99.90
46890;DHT22;32625;51.080;16.970;2023-07-16T15:38:27;24.40;99.90